Hawthorne, New York
Current Conditions -  °F | °C
As of 1:56 PM on Friday 21 Nov 2014 (Local Time) from KHPN Reporting Station
Few Clouds Few Clouds  
Wind Chill: 23°   Ceiling: Unl
Heat Index: 34°   Visibility: 10mi
Dew Point:   Wind: 20mph
Humidity: 35%   Direction: 290°WNW
Pressure: 30.26"   Gusts: 31mph
Location:  41.11°N, 73.8°W
Report Text: KHPN 211856Z 29017G27KT 10SM FEW050 01/M13 A3026 RMK AO2 PK WND 30030/1813 SLP257 T00111128
Loading
Personal Weather Stations






























Interactive Weather Map New forecast layout! Learn more

10-Day Weather Forecast

Advertisements
Track Severe Weather on mobile